sensor_id;sensor_type;location;lat;lon;timestamp;temperature;humidity
1381;DHT22;684;48.342;10.096;2023-07-13T00:00:36;20.10;42.70
1381;DHT22;684;48.342;10.096;2023-07-13T00:03:03;20.10;42.70
1381;DHT22;684;48.342;10.096;2023-07-13T00:05:30;20.10;42.80
1381;DHT22;684;48.342;10.096;2023-07-13T00:07:57;20.20;42.70
1381;DHT22;684;48.342;10.096;2023-07-13T00:10:24;20.20;42.80
1381;DHT22;684;48.342;10.096;2023-07-13T00:12:51;20.30;42.80
1381;DHT22;684;48.342;10.096;2023-07-13T00:15:27;20.30;42.60
1381;DHT22;684;48.342;10.096;2023-07-13T00:17:55;20.30;42.50
1381;DHT22;684;48.342;10.096;2023-07-13T00:20:24;20.40;42.50
1381;DHT22;684;48.342;10.096;2023-07-13T00:22:51;20.40;42.60
1381;DHT22;684;48.342;10.096;2023-07-13T00:25:19;20.40;42.70
1381;DHT22;684;48.342;10.096;2023-07-13T00:27:47;20.40;42.60
1381;DHT22;684;48.342;10.096;2023-07-13T00:30:15;20.40;42.20
1381;DHT22;684;48.342;10.096;2023-07-13T00:32:43;20.50;42.20
1381;DHT22;684;48.342;10.096;2023-07-13T00:35:12;20.50;42.20
1381;DHT22;684;48.342;10.096;2023-07-13T00:37:39;20.50;41.90
1381;DHT22;684;48.342;10.096;2023-07-13T00:40:07;20.50;41.00
1381;DHT22;684;48.342;10.096;2023-07-13T00:42:34;20.50;40.40
1381;DHT22;684;48.342;10.096;2023-07-13T00:45:03;20.40;40.10
1381;DHT22;684;48.342;10.096;2023-07-13T00:47:30;20.40;40.00
1381;DHT22;684;48.342;10.096;2023-07-13T00:49:59;20.50;39.80
1381;DHT22;684;48.342;10.096;2023-07-13T00:52:26;20.50;39.60
1381;DHT22;684;48.342;10.096;2023-07-13T00:54:53;20.50;39.40
1381;DHT22;684;48.342;10.096;2023-07-13T00:57:21;20.40;39.30
1381;DHT22;684;48.342;10.096;2023-07-13T00:59:51;20.40;38.70
1381;DHT22;684;48.342;10.096;2023-07-13T01:02:19;20.40;38.20
1381;DHT22;684;48.342;10.096;2023-07-13T01:04:47;20.40;38.30
1381;DHT22;684;48.342;10.096;2023-07-13T01:07:15;20.30;38.20
1381;DHT22;684;48.342;10.096;2023-07-13T01:09:42;20.30;38.10
1381;DHT22;684;48.342;10.096;2023-07-13T01:12:10;20.20;38.10
1381;DHT22;684;48.342;10.096;2023-07-13T01:14:39;20.20;38.20
1381;DHT22;684;48.342;10.096;2023-07-13T01:17:08;20.10;38.40
1381;DHT22;684;48.342;10.096;2023-07-13T01:19:38;20.10;38.60
1381;DHT22;684;48.342;10.096;2023-07-13T01:22:08;20.00;38.80
1381;DHT22;684;48.342;10.096;2023-07-13T01:24:37;20.00;38.90
1381;DHT22;684;48.342;10.096;2023-07-13T01:27:05;19.90;38.80
1381;DHT22;684;48.342;10.096;2023-07-13T01:29:34;19.90;39.10
1381;DHT22;684;48.342;10.096;2023-07-13T01:32:08;19.90;39.10
1381;DHT22;684;48.342;10.096;2023-07-13T01:34:35;19.80;39.00
1381;DHT22;684;48.342;10.096;2023-07-13T01:37:04;19.80;39.20
1381;DHT22;684;48.342;10.096;2023-07-13T01:39:32;19.80;39.20
1381;DHT22;684;48.342;10.096;2023-07-13T01:41:58;19.80;39.20
1381;DHT22;684;48.342;10.096;2023-07-13T01:44:25;19.70;39.40
1381;DHT22;684;48.342;10.096;2023-07-13T01:46:52;19.70;39.30
1381;DHT22;684;48.342;10.096;2023-07-13T01:49:19;19.70;39.40
1381;DHT22;684;48.342;10.096;2023-07-13T01:51:46;19.60;39.50
1381;DHT22;684;48.342;10.096;2023-07-13T01:54:13;19.60;39.40
1381;DHT22;684;48.342;10.096;2023-07-13T01:56:41;19.60;39.40
1381;DHT22;684;48.342;10.096;2023-07-13T01:59:08;19.50;39.50
1381;DHT22;684;48.342;10.096;2023-07-13T02:01:35;19.50;39.80
1381;DHT22;684;48.342;10.096;2023-07-13T02:04:02;19.50;39.90
1381;DHT22;684;48.342;10.096;2023-07-13T02:06:29;19.50;40.10
1381;DHT22;684;48.342;10.096;2023-07-13T02:08:55;19.50;39.90
1381;DHT22;684;48.342;10.096;2023-07-13T02:11:22;19.40;39.70
1381;DHT22;684;48.342;10.096;2023-07-13T02:13:51;19.40;39.50
1381;DHT22;684;48.342;10.096;2023-07-13T02:16:18;19.30;39.50
1381;DHT22;684;48.342;10.096;2023-07-13T02:18:45;19.30;39.30
1381;DHT22;684;48.342;10.096;2023-07-13T02:21:11;19.30;39.20
1381;DHT22;684;48.342;10.096;2023-07-13T02:23:38;19.20;39.10
1381;DHT22;684;48.342;10.096;2023-07-13T02:26:05;19.20;38.90
1381;DHT22;684;48.342;10.096;2023-07-13T02:28:31;19.10;38.90
1381;DHT22;684;48.342;10.096;2023-07-13T02:31:06;19.10;38.80
1381;DHT22;684;48.342;10.096;2023-07-13T02:33:33;19.00;39.00
1381;DHT22;684;48.342;10.096;2023-07-13T02:36:00;19.00;38.90
1381;DHT22;684;48.342;10.096;2023-07-13T02:38:26;18.90;39.10
1381;DHT22;684;48.342;10.096;2023-07-13T02:40:53;18.90;39.00
1381;DHT22;684;48.342;10.096;2023-07-13T02:43:20;18.80;39.10
1381;DHT22;684;48.342;10.096;2023-07-13T02:45:46;18.80;39.10
1381;DHT22;684;48.342;10.096;2023-07-13T02:48:15;18.80;39.20
1381;DHT22;684;48.342;10.096;2023-07-13T02:50:41;18.70;39.10
1381;DHT22;684;48.342;10.096;2023-07-13T02:53:08;18.70;39.00
1381;DHT22;684;48.342;10.096;2023-07-13T02:55:35;18.70;38.80
1381;DHT22;684;48.342;10.096;2023-07-13T02:58:02;18.60;38.80
1381;DHT22;684;48.342;10.096;2023-07-13T03:00:29;18.60;38.90
1381;DHT22;684;48.342;10.096;2023-07-13T03:02:56;18.60;38.90
1381;DHT22;684;48.342;10.096;2023-07-13T03:05:25;18.50;39.00
1381;DHT22;684;48.342;10.096;2023-07-13T03:07:51;18.50;39.20
1381;DHT22;684;48.342;10.096;2023-07-13T03:10:18;18.50;39.40
1381;DHT22;684;48.342;10.096;2023-07-13T03:12:45;18.50;39.50
1381;DHT22;684;48.342;10.096;2023-07-13T03:15:11;18.40;39.40
1381;DHT22;684;48.342;10.096;2023-07-13T03:17:38;18.50;39.40
1381;DHT22;684;48.342;10.096;2023-07-13T03:20:07;18.50;39.40
1381;DHT22;684;48.342;10.096;2023-07-13T03:22:36;18.40;39.20
1381;DHT22;684;48.342;10.096;2023-07-13T03:25:03;18.40;39.00
1381;DHT22;684;48.342;10.096;2023-07-13T03:27:30;18.40;38.90
1381;DHT22;684;48.342;10.096;2023-07-13T03:29:56;18.40;38.80
1381;DHT22;684;48.342;10.096;2023-07-13T03:32:23;18.40;38.90
1381;DHT22;684;48.342;10.096;2023-07-13T03:34:50;18.40;38.90
1381;DHT22;684;48.342;10.096;2023-07-13T03:37:17;18.40;38.90
1381;DHT22;684;48.342;10.096;2023-07-13T03:39:45;18.40;38.80
1381;DHT22;684;48.342;10.096;2023-07-13T03:42:11;18.40;38.80
1381;DHT22;684;48.342;10.096;2023-07-13T03:44:39;18.40;38.60
1381;DHT22;684;48.342;10.096;2023-07-13T03:47:06;18.40;38.50
1381;DHT22;684;48.342;10.096;2023-07-13T03:49:34;18.40;38.20
1381;DHT22;684;48.342;10.096;2023-07-13T03:52:01;18.40;38.10
1381;DHT22;684;48.342;10.096;2023-07-13T03:54:27;18.40;38.10
1381;DHT22;684;48.342;10.096;2023-07-13T03:56:56;18.40;38.00
1381;DHT22;684;48.342;10.096;2023-07-13T03:59:23;18.50;37.90
1381;DHT22;684;48.342;10.096;2023-07-13T04:01:49;18.50;37.80
1381;DHT22;684;48.342;10.096;2023-07-13T04:04:16;18.50;37.80
1381;DHT22;684;48.342;10.096;2023-07-13T04:06:43;18.40;37.90
1381;DHT22;684;48.342;10.096;2023-07-13T04:09:09;18.50;37.80
1381;DHT22;684;48.342;10.096;2023-07-13T04:11:36;18.50;37.60
1381;DHT22;684;48.342;10.096;2023-07-13T04:14:04;18.50;37.40
1381;DHT22;684;48.342;10.096;2023-07-13T04:16:31;18.60;37.30
1381;DHT22;684;48.342;10.096;2023-07-13T04:18:58;18.60;37.10
1381;DHT22;684;48.342;10.096;2023-07-13T04:21:26;18.60;37.10
1381;DHT22;684;48.342;10.096;2023-07-13T04:23:54;18.60;36.90
1381;DHT22;684;48.342;10.096;2023-07-13T04:26:21;18.70;37.10
1381;DHT22;684;48.342;10.096;2023-07-13T04:28:48;18.70;37.30
1381;DHT22;684;48.342;10.096;2023-07-13T04:31:17;18.70;37.60
1381;DHT22;684;48.342;10.096;2023-07-13T04:33:44;18.70;37.80
1381;DHT22;684;48.342;10.096;2023-07-13T04:36:10;18.70;37.70
1381;DHT22;684;48.342;10.096;2023-07-13T04:38:37;18.70;37.30
1381;DHT22;684;48.342;10.096;2023-07-13T04:41:06;18.80;37.30
1381;DHT22;684;48.342;10.096;2023-07-13T04:43:33;18.80;37.00
1381;DHT22;684;48.342;10.096;2023-07-13T04:46:03;18.80;37.20
1381;DHT22;684;48.342;10.096;2023-07-13T04:48:32;18.80;37.30
1381;DHT22;684;48.342;10.096;2023-07-13T04:50:59;18.90;37.20
1381;DHT22;684;48.342;10.096;2023-07-13T04:53:26;18.90;37.90
1381;DHT22;684;48.342;10.096;2023-07-13T04:55:53;18.90;37.80
1381;DHT22;684;48.342;10.096;2023-07-13T04:58:19;18.90;37.60
1381;DHT22;684;48.342;10.096;2023-07-13T05:00:47;19.00;37.20
1381;DHT22;684;48.342;10.096;2023-07-13T05:03:13;19.00;36.90
1381;DHT22;684;48.342;10.096;2023-07-13T05:05:41;19.00;36.50
1381;DHT22;684;48.342;10.096;2023-07-13T05:08:08;19.10;36.20
1381;DHT22;684;48.342;10.096;2023-07-13T05:10:35;19.10;36.10
1381;DHT22;684;48.342;10.096;2023-07-13T05:13:02;19.20;34.80
1381;DHT22;684;48.342;10.096;2023-07-13T05:15:29;19.30;33.50
1381;DHT22;684;48.342;10.096;2023-07-13T05:17:55;19.30;33.30
1381;DHT22;684;48.342;10.096;2023-07-13T05:20:22;19.30;32.70
1381;DHT22;684;48.342;10.096;2023-07-13T05:22:50;19.30;32.70
1381;DHT22;684;48.342;10.096;2023-07-13T05:25:17;19.30;33.50
1381;DHT22;684;48.342;10.096;2023-07-13T05:27:44;19.30;32.70
1381;DHT22;684;48.342;10.096;2023-07-13T05:30:12;19.40;32.80
1381;DHT22;684;48.342;10.096;2023-07-13T05:32:39;19.40;33.20
1381;DHT22;684;48.342;10.096;2023-07-13T05:35:06;19.40;33.80
1381;DHT22;684;48.342;10.096;2023-07-13T05:37:33;19.50;34.10
1381;DHT22;684;48.342;10.096;2023-07-13T05:40:02;19.50;34.70
1381;DHT22;684;48.342;10.096;2023-07-13T05:42:29;19.50;34.60
1381;DHT22;684;48.342;10.096;2023-07-13T05:44:57;19.60;34.70
1381;DHT22;684;48.342;10.096;2023-07-13T05:47:24;19.70;34.80
1381;DHT22;684;48.342;10.096;2023-07-13T05:49:51;19.70;34.40
1381;DHT22;684;48.342;10.096;2023-07-13T05:52:17;19.80;32.80
1381;DHT22;684;48.342;10.096;2023-07-13T05:54:44;19.80;32.10
1381;DHT22;684;48.342;10.096;2023-07-13T05:57:12;19.90;31.80
1381;DHT22;684;48.342;10.096;2023-07-13T05:59:39;20.00;31.70
1381;DHT22;684;48.342;10.096;2023-07-13T06:02:07;20.00;31.40
1381;DHT22;684;48.342;10.096;2023-07-13T06:04:34;20.20;31.10
1381;DHT22;684;48.342;10.096;2023-07-13T06:07:01;20.30;30.90
1381;DHT22;684;48.342;10.096;2023-07-13T06:09:28;20.50;30.70
1381;DHT22;684;48.342;10.096;2023-07-13T06:11:55;20.60;30.40
1381;DHT22;684;48.342;10.096;2023-07-13T06:14:23;20.70;30.10
1381;DHT22;684;48.342;10.096;2023-07-13T06:16:49;20.80;30.20
1381;DHT22;684;48.342;10.096;2023-07-13T06:19:16;21.00;30.10
1381;DHT22;684;48.342;10.096;2023-07-13T06:21:43;21.20;29.10
1381;DHT22;684;48.342;10.096;2023-07-13T06:24:10;21.40;28.80
1381;DHT22;684;48.342;10.096;2023-07-13T06:26:37;21.50;28.40
1381;DHT22;684;48.342;10.096;2023-07-13T06:29:04;21.70;27.50
1381;DHT22;684;48.342;10.096;2023-07-13T06:31:32;21.90;27.00
1381;DHT22;684;48.342;10.096;2023-07-13T06:33:59;22.00;26.60
1381;DHT22;684;48.342;10.096;2023-07-13T06:36:25;22.30;26.20
1381;DHT22;684;48.342;10.096;2023-07-13T06:38:52;22.40;24.80
1381;DHT22;684;48.342;10.096;2023-07-13T06:41:19;22.40;23.80
1381;DHT22;684;48.342;10.096;2023-07-13T06:43:47;22.30;23.60
1381;DHT22;684;48.342;10.096;2023-07-13T06:46:14;22.20;23.80
1381;DHT22;684;48.342;10.096;2023-07-13T06:48:42;22.20;22.60
1381;DHT22;684;48.342;10.096;2023-07-13T06:51:09;22.20;22.50
1381;DHT22;684;48.342;10.096;2023-07-13T06:53:35;22.20;22.70
1381;DHT22;684;48.342;10.096;2023-07-13T06:56:02;22.20;23.00
1381;DHT22;684;48.342;10.096;2023-07-13T06:58:29;22.30;22.90
1381;DHT22;684;48.342;10.096;2023-07-13T07:00:56;22.40;22.10
1381;DHT22;684;48.342;10.096;2023-07-13T07:03:23;22.40;21.20
1381;DHT22;684;48.342;10.096;2023-07-13T07:05:51;22.40;21.00
1381;DHT22;684;48.342;10.096;2023-07-13T07:08:17;22.30;20.20
1381;DHT22;684;48.342;10.096;2023-07-13T07:10:44;22.20;19.40
1381;DHT22;684;48.342;10.096;2023-07-13T07:13:12;22.10;19.40
1381;DHT22;684;48.342;10.096;2023-07-13T07:15:38;22.10;19.60
1381;DHT22;684;48.342;10.096;2023-07-13T07:18:05;22.10;19.70
1381;DHT22;684;48.342;10.096;2023-07-13T07:20:32;22.20;19.90
1381;DHT22;684;48.342;10.096;2023-07-13T07:23:00;22.80;19.30
1381;DHT22;684;48.342;10.096;2023-07-13T07:25:27;23.60;17.10
1381;DHT22;684;48.342;10.096;2023-07-13T07:27:57;24.00;15.20
1381;DHT22;684;48.342;10.096;2023-07-13T07:30:24;24.00;14.60
1381;DHT22;684;48.342;10.096;2023-07-13T07:32:50;23.90;14.50
1381;DHT22;684;48.342;10.096;2023-07-13T07:35:17;24.00;14.30
1381;DHT22;684;48.342;10.096;2023-07-13T07:37:44;24.20;13.50
1381;DHT22;684;48.342;10.096;2023-07-13T07:40:12;24.50;12.90
1381;DHT22;684;48.342;10.096;2023-07-13T07:42:39;25.50;11.50
1381;DHT22;684;48.342;10.096;2023-07-13T07:45:06;26.80;8.10
1381;DHT22;684;48.342;10.096;2023-07-13T07:47:33;27.50;5.30
1381;DHT22;684;48.342;10.096;2023-07-13T07:49:59;27.50;3.70
1381;DHT22;684;48.342;10.096;2023-07-13T07:52:26;27.50;4.60
1381;DHT22;684;48.342;10.096;2023-07-13T07:54:53;27.10;5.50
1381;DHT22;684;48.342;10.096;2023-07-13T07:57:21;26.90;5.30
1381;DHT22;684;48.342;10.096;2023-07-13T07:59:48;26.90;4.80
1381;DHT22;684;48.342;10.096;2023-07-13T08:02:14;26.70;4.80
1381;DHT22;684;48.342;10.096;2023-07-13T08:04:41;26.40;4.70
1381;DHT22;684;48.342;10.096;2023-07-13T08:07:09;26.20;5.00
1381;DHT22;684;48.342;10.096;2023-07-13T08:09:35;26.00;5.00
1381;DHT22;684;48.342;10.096;2023-07-13T08:12:03;25.70;5.60
1381;DHT22;684;48.342;10.096;2023-07-13T08:14:31;25.40;6.70
1381;DHT22;684;48.342;10.096;2023-07-13T08:16:58;25.10;6.80
1381;DHT22;684;48.342;10.096;2023-07-13T08:19:24;25.10;6.90
1381;DHT22;684;48.342;10.096;2023-07-13T08:21:51;25.30;6.50
1381;DHT22;684;48.342;10.096;2023-07-13T08:24:18;25.80;4.80
1381;DHT22;684;48.342;10.096;2023-07-13T08:26:45;26.60;3.40
1381;DHT22;684;48.342;10.096;2023-07-13T08:29:12;27.40;1.80
1381;DHT22;684;48.342;10.096;2023-07-13T08:31:40;28.20;1.00
1381;DHT22;684;48.342;10.096;2023-07-13T08:34:07;29.00;1.00
1381;DHT22;684;48.342;10.096;2023-07-13T08:36:36;29.80;1.00
1381;DHT22;684;48.342;10.096;2023-07-13T08:39:03;30.60;1.00
1381;DHT22;684;48.342;10.096;2023-07-13T08:41:32;31.00;1.00
1381;DHT22;684;48.342;10.096;2023-07-13T08:44:00;30.80;1.00
1381;DHT22;684;48.342;10.096;2023-07-13T08:46:34;30.70;1.00
1381;DHT22;684;48.342;10.096;2023-07-13T08:49:05;30.80;1.00
1381;DHT22;684;48.342;10.096;2023-07-13T08:51:40;30.90;1.00
1381;DHT22;684;48.342;10.096;2023-07-13T08:54:16;30.50;1.00
1381;DHT22;684;48.342;10.096;2023-07-13T08:56:45;29.70;1.00
1381;DHT22;684;48.342;10.096;2023-07-13T08:59:14;29.20;1.00
1381;DHT22;684;48.342;10.096;2023-07-13T09:01:59;28.80;1.00
1381;DHT22;684;48.342;10.096;2023-07-13T09:04:34;28.60;1.00
1381;DHT22;684;48.342;10.096;2023-07-13T09:07:06;28.70;1.00
1381;DHT22;684;48.342;10.096;2023-07-13T09:09:44;29.60;1.00
1381;DHT22;684;48.342;10.096;2023-07-13T09:12:19;30.90;1.00
1381;DHT22;684;48.342;10.096;2023-07-13T09:14:49;33.20;1.00
1381;DHT22;684;48.342;10.096;2023-07-13T09:17:19;37.20;1.00
1381;DHT22;684;48.342;10.096;2023-07-13T09:19:54;40.20;1.00
1381;DHT22;684;48.342;10.096;2023-07-13T09:22:24;41.30;1.00
1381;DHT22;684;48.342;10.096;2023-07-13T09:24:58;41.50;1.00
1381;DHT22;684;48.342;10.096;2023-07-13T09:27:30;40.40;1.00
1381;DHT22;684;48.342;10.096;2023-07-13T09:30:03;39.20;1.00
1381;DHT22;684;48.342;10.096;2023-07-13T09:32:31;37.80;1.00
1381;DHT22;684;48.342;10.096;2023-07-13T09:35:00;36.60;1.00
1381;DHT22;684;48.342;10.096;2023-07-13T09:37:31;35.60;1.00
1381;DHT22;684;48.342;10.096;2023-07-13T09:39:59;34.90;1.00
1381;DHT22;684;48.342;10.096;2023-07-13T09:42:30;34.30;1.00
1381;DHT22;684;48.342;10.096;2023-07-13T09:44:59;33.90;1.00
1381;DHT22;684;48.342;10.096;2023-07-13T09:47:29;33.80;1.00
1381;DHT22;684;48.342;10.096;2023-07-13T09:49:58;33.70;1.00
1381;DHT22;684;48.342;10.096;2023-07-13T09:52:27;33.50;1.00
1381;DHT22;684;48.342;10.096;2023-07-13T09:54:58;33.50;1.00
1381;DHT22;684;48.342;10.096;2023-07-13T09:57:26;33.20;1.00
1381;DHT22;684;48.342;10.096;2023-07-13T09:59:55;33.00;1.00
1381;DHT22;684;48.342;10.096;2023-07-13T10:04:59;32.90;1.00
1381;DHT22;684;48.342;10.096;2023-07-13T10:07:27;32.70;1.00
1381;DHT22;684;48.342;10.096;2023-07-13T10:09:54;32.50;1.00
1381;DHT22;684;48.342;10.096;2023-07-13T10:12:22;32.50;1.00
1381;DHT22;684;48.342;10.096;2023-07-13T10:14:51;32.40;1.00
1381;DHT22;684;48.342;10.096;2023-07-13T10:17:26;32.20;1.00
1381;DHT22;684;48.342;10.096;2023-07-13T10:19:57;32.00;1.00
1381;DHT22;684;48.342;10.096;2023-07-13T10:22:33;31.90;1.00
1381;DHT22;684;48.342;10.096;2023-07-13T10:25:04;31.80;1.00
1381;DHT22;684;48.342;10.096;2023-07-13T10:27:40;31.70;1.00
1381;DHT22;684;48.342;10.096;2023-07-13T10:30:16;31.50;1.00
1381;DHT22;684;48.342;10.096;2023-07-13T10:32:45;31.20;1.00
1381;DHT22;684;48.342;10.096;2023-07-13T10:35:14;30.90;1.00
1381;DHT22;684;48.342;10.096;2023-07-13T10:37:49;30.60;1.00
1381;DHT22;684;48.342;10.096;2023-07-13T10:40:19;30.30;1.00
1381;DHT22;684;48.342;10.096;2023-07-13T10:42:50;30.00;1.00
1381;DHT22;684;48.342;10.096;2023-07-13T10:45:20;29.80;1.00
1381;DHT22;684;48.342;10.096;2023-07-13T10:47:47;29.70;1.00
1381;DHT22;684;48.342;10.096;2023-07-13T10:50:19;29.40;1.00
1381;DHT22;684;48.342;10.096;2023-07-13T10:52:50;29.20;1.00
1381;DHT22;684;48.342;10.096;2023-07-13T10:55:33;29.10;1.00
1381;DHT22;684;48.342;10.096;2023-07-13T10:58:03;29.20;1.00
1381;DHT22;684;48.342;10.096;2023-07-13T11:00:44;29.40;1.00
1381;DHT22;684;48.342;10.096;2023-07-13T11:03:14;29.80;1.00
1381;DHT22;684;48.342;10.096;2023-07-13T11:05:41;30.00;1.00
1381;DHT22;684;48.342;10.096;2023-07-13T11:08:19;30.10;1.00
1381;DHT22;684;48.342;10.096;2023-07-13T11:10:53;30.10;1.00
1381;DHT22;684;48.342;10.096;2023-07-13T11:13:56;30.00;1.00
1381;DHT22;684;48.342;10.096;2023-07-13T11:16:42;29.80;1.00
1381;DHT22;684;48.342;10.096;2023-07-13T11:19:42;29.80;1.00
1381;DHT22;684;48.342;10.096;2023-07-13T11:22:21;29.80;1.00
1381;DHT22;684;48.342;10.096;2023-07-13T11:27:51;29.60;1.00
1381;DHT22;684;48.342;10.096;2023-07-13T11:30:31;29.30;1.00
1381;DHT22;684;48.342;10.096;2023-07-13T11:33:11;29.00;1.00
1381;DHT22;684;48.342;10.096;2023-07-13T11:35:43;28.70;1.00
1381;DHT22;684;48.342;10.096;2023-07-13T11:38:14;28.40;1.00
1381;DHT22;684;48.342;10.096;2023-07-13T11:40:44;28.10;1.00
1381;DHT22;684;48.342;10.096;2023-07-13T11:43:15;27.90;1.00
1381;DHT22;684;48.342;10.096;2023-07-13T11:45:42;27.80;1.00
1381;DHT22;684;48.342;10.096;2023-07-13T11:48:25;27.90;1.00
1381;DHT22;684;48.342;10.096;2023-07-13T11:50:56;27.90;1.00
1381;DHT22;684;48.342;10.096;2023-07-13T11:53:27;27.80;1.00
1381;DHT22;684;48.342;10.096;2023-07-13T11:55:54;27.70;1.00
1381;DHT22;684;48.342;10.096;2023-07-13T11:58:25;27.70;1.00
1381;DHT22;684;48.342;10.096;2023-07-13T12:00:54;27.40;1.00
1381;DHT22;684;48.342;10.096;2023-07-13T12:03:23;27.30;1.00
1381;DHT22;684;48.342;10.096;2023-07-13T12:06:01;27.30;1.00
1381;DHT22;684;48.342;10.096;2023-07-13T12:08:31;27.40;1.00
1381;DHT22;684;48.342;10.096;2023-07-13T12:11:18;27.40;1.00
1381;DHT22;684;48.342;10.096;2023-07-13T12:13:47;27.30;1.00
1381;DHT22;684;48.342;10.096;2023-07-13T12:16:16;27.30;1.00
1381;DHT22;684;48.342;10.096;2023-07-13T12:18:44;27.30;1.00
1381;DHT22;684;48.342;10.096;2023-07-13T12:21:17;27.30;1.00
1381;DHT22;684;48.342;10.096;2023-07-13T12:23:45;27.40;1.00
1381;DHT22;684;48.342;10.096;2023-07-13T12:26:15;27.50;1.00
1381;DHT22;684;48.342;10.096;2023-07-13T12:28:46;27.60;1.00
1381;DHT22;684;48.342;10.096;2023-07-13T12:31:29;27.50;1.00
1381;DHT22;684;48.342;10.096;2023-07-13T12:33:58;27.60;1.00
1381;DHT22;684;48.342;10.096;2023-07-13T12:36:25;27.70;1.00
1381;DHT22;684;48.342;10.096;2023-07-13T12:38:52;27.70;1.00
1381;DHT22;684;48.342;10.096;2023-07-13T12:41:19;27.90;1.00
1381;DHT22;684;48.342;10.096;2023-07-13T12:43:48;27.90;1.00
1381;DHT22;684;48.342;10.096;2023-07-13T12:46:17;27.90;1.00
1381;DHT22;684;48.342;10.096;2023-07-13T12:48:48;27.80;1.00
1381;DHT22;684;48.342;10.096;2023-07-13T12:51:15;27.60;1.00
1381;DHT22;684;48.342;10.096;2023-07-13T12:53:48;27.50;1.00
1381;DHT22;684;48.342;10.096;2023-07-13T12:56:20;27.50;1.00
1381;DHT22;684;48.342;10.096;2023-07-13T12:58:48;27.50;1.00
1381;DHT22;684;48.342;10.096;2023-07-13T13:01:20;27.40;1.00
1381;DHT22;684;48.342;10.096;2023-07-13T13:03:50;27.40;1.00
1381;DHT22;684;48.342;10.096;2023-07-13T13:06:21;27.30;1.00
1381;DHT22;684;48.342;10.096;2023-07-13T13:08:51;27.20;1.00
1381;DHT22;684;48.342;10.096;2023-07-13T13:11:19;27.10;1.00
1381;DHT22;684;48.342;10.096;2023-07-13T13:13:46;27.00;1.00
1381;DHT22;684;48.342;10.096;2023-07-13T13:16:20;26.80;1.00
1381;DHT22;684;48.342;10.096;2023-07-13T13:18:49;26.70;1.00
1381;DHT22;684;48.342;10.096;2023-07-13T13:21:17;26.60;1.00
1381;DHT22;684;48.342;10.096;2023-07-13T13:23:44;26.50;1.00
1381;DHT22;684;48.342;10.096;2023-07-13T13:26:12;26.40;1.00
1381;DHT22;684;48.342;10.096;2023-07-13T13:28:40;26.30;1.00
1381;DHT22;684;48.342;10.096;2023-07-13T13:31:08;26.30;1.60
1381;DHT22;684;48.342;10.096;2023-07-13T13:33:39;26.30;2.60
1381;DHT22;684;48.342;10.096;2023-07-13T13:36:15;26.20;1.00
1381;DHT22;684;48.342;10.096;2023-07-13T13:38:42;26.20;1.00
1381;DHT22;684;48.342;10.096;2023-07-13T13:41:10;26.20;1.40
1381;DHT22;684;48.342;10.096;2023-07-13T13:43:39;26.10;1.30
1381;DHT22;684;48.342;10.096;2023-07-13T13:46:14;26.10;1.30
1381;DHT22;684;48.342;10.096;2023-07-13T13:48:43;26.10;1.00
1381;DHT22;684;48.342;10.096;2023-07-13T13:51:15;26.10;1.00
1381;DHT22;684;48.342;10.096;2023-07-13T13:53:43;26.10;1.00
1381;DHT22;684;48.342;10.096;2023-07-13T13:56:09;26.10;1.00
1381;DHT22;684;48.342;10.096;2023-07-13T13:58:36;26.10;1.00
1381;DHT22;684;48.342;10.096;2023-07-13T14:01:03;26.00;1.00
1381;DHT22;684;48.342;10.096;2023-07-13T14:03:33;26.00;1.20
1381;DHT22;684;48.342;10.096;2023-07-13T14:06:00;26.00;1.90
1381;DHT22;684;48.342;10.096;2023-07-13T14:08:28;26.00;1.00
1381;DHT22;684;48.342;10.096;2023-07-13T14:10:57;26.00;1.00
1381;DHT22;684;48.342;10.096;2023-07-13T14:13:28;26.00;1.40
1381;DHT22;684;48.342;10.096;2023-07-13T14:15:54;26.00;1.30
1381;DHT22;684;48.342;10.096;2023-07-13T14:18:22;26.00;1.00
1381;DHT22;684;48.342;10.096;2023-07-13T14:20:49;26.00;1.00
1381;DHT22;684;48.342;10.096;2023-07-13T14:23:18;26.00;1.00
1381;DHT22;684;48.342;10.096;2023-07-13T14:25:47;26.00;1.00
1381;DHT22;684;48.342;10.096;2023-07-13T14:28:22;26.10;1.00
1381;DHT22;684;48.342;10.096;2023-07-13T14:30:50;26.30;1.00
1381;DHT22;684;48.342;10.096;2023-07-13T14:33:17;26.50;1.00
1381;DHT22;684;48.342;10.096;2023-07-13T14:35:44;26.60;1.00
1381;DHT22;684;48.342;10.096;2023-07-13T14:38:14;26.70;1.00
1381;DHT22;684;48.342;10.096;2023-07-13T14:40:41;26.80;1.00
1381;DHT22;684;48.342;10.096;2023-07-13T14:43:12;26.90;1.00
1381;DHT22;684;48.342;10.096;2023-07-13T14:45:41;27.00;1.00
1381;DHT22;684;48.342;10.096;2023-07-13T14:48:16;26.90;1.00
1381;DHT22;684;48.342;10.096;2023-07-13T14:50:44;26.70;1.00
1381;DHT22;684;48.342;10.096;2023-07-13T14:53:12;26.60;1.00
1381;DHT22;684;48.342;10.096;2023-07-13T14:55:39;26.50;1.00
1381;DHT22;684;48.342;10.096;2023-07-13T14:58:08;26.40;1.00
1381;DHT22;684;48.342;10.096;2023-07-13T15:00:36;26.20;1.00
1381;DHT22;684;48.342;10.096;2023-07-13T15:03:04;26.20;1.00
1381;DHT22;684;48.342;10.096;2023-07-13T15:05:31;26.20;1.00
1381;DHT22;684;48.342;10.096;2023-07-13T15:08:00;26.10;1.00
1381;DHT22;684;48.342;10.096;2023-07-13T15:10:28;26.10;1.00
1381;DHT22;684;48.342;10.096;2023-07-13T15:12:58;26.10;1.00
1381;DHT22;684;48.342;10.096;2023-07-13T15:15:27;26.10;1.00
1381;DHT22;684;48.342;10.096;2023-07-13T15:17:56;26.20;1.00
1381;DHT22;684;48.342;10.096;2023-07-13T15:20:26;26.30;1.00
1381;DHT22;684;48.342;10.096;2023-07-13T15:22:54;26.40;1.00
1381;DHT22;684;48.342;10.096;2023-07-13T15:25:23;26.40;1.00
1381;DHT22;684;48.342;10.096;2023-07-13T15:27:51;26.50;1.00
1381;DHT22;684;48.342;10.096;2023-07-13T15:30:18;26.60;1.00
1381;DHT22;684;48.342;10.096;2023-07-13T15:32:45;26.70;1.00
1381;DHT22;684;48.342;10.096;2023-07-13T15:35:18;26.70;1.00
1381;DHT22;684;48.342;10.096;2023-07-13T15:37:45;26.70;1.00
1381;DHT22;684;48.342;10.096;2023-07-13T15:40:13;26.60;1.00
1381;DHT22;684;48.342;10.096;2023-07-13T15:42:40;26.50;1.00
1381;DHT22;684;48.342;10.096;2023-07-13T15:45:18;26.40;1.00
1381;DHT22;684;48.342;10.096;2023-07-13T15:47:45;26.40;1.00
1381;DHT22;684;48.342;10.096;2023-07-13T15:50:16;26.30;1.00
1381;DHT22;684;48.342;10.096;2023-07-13T15:52:47;26.20;1.00
1381;DHT22;684;48.342;10.096;2023-07-13T15:55:15;26.10;1.00
1381;DHT22;684;48.342;10.096;2023-07-13T15:57:46;25.90;1.00
1381;DHT22;684;48.342;10.096;2023-07-13T16:00:16;25.90;1.00
1381;DHT22;684;48.342;10.096;2023-07-13T16:02:45;25.90;1.40
1381;DHT22;684;48.342;10.096;2023-07-13T16:05:12;25.90;1.10
1381;DHT22;684;48.342;10.096;2023-07-13T16:07:43;26.00;1.00
1381;DHT22;684;48.342;10.096;2023-07-13T16:10:14;26.10;1.00
1381;DHT22;684;48.342;10.096;2023-07-13T16:12:42;26.10;1.00
1381;DHT22;684;48.342;10.096;2023-07-13T16:15:13;26.20;1.00
1381;DHT22;684;48.342;10.096;2023-07-13T16:17:41;26.20;1.00
1381;DHT22;684;48.342;10.096;2023-07-13T16:20:09;26.30;1.00
1381;DHT22;684;48.342;10.096;2023-07-13T16:22:37;26.20;1.20
1381;DHT22;684;48.342;10.096;2023-07-13T16:25:13;26.20;1.20